Andice, Texas
Current Conditions -  °F | °C
As of 7:48 PM on Friday 31 Oct 2014 (Local Time) from KGTU Reporting Station
Clear Clear  
Wind Chill: 61°   Ceiling: Unl
Heat Index: 61°   Visibility: 10mi
Dew Point: 39°   Wind: 6mph
Humidity: 45%   Direction: 10°N
Pressure: 30.28"   Gusts: NA
Location:  30.6575°N, 97.7523°W
Report Text: KGTU 010048Z 01005KT 10SM CLR 16/04 A3028
Loading
Personal Weather Stations






























Interactive Weather Map
Tropical Storm Tracking
New forecast layout! Learn more

10-Day Weather Forecast

Advertisements
Track Severe Weather on mobile